createdAt,value
2023-05-25T00:01:01.745Z,4.30
2023-05-25T00:06:05.637Z,4.70
2023-05-25T00:11:07.400Z,5.57
2023-05-25T00:16:09.206Z,4.32
2023-05-25T00:21:11.887Z,4.80
2023-05-25T00:26:14.091Z,5.13
2023-05-25T00:31:15.908Z,4.95
2023-05-25T00:36:18.094Z,5.15
2023-05-25T00:41:20.926Z,5.25
2023-05-25T00:46:23.647Z,6.20
2023-05-25T00:51:27.153Z,6.03
2023-05-25T00:56:32.550Z,6.35
2023-05-25T01:01:40.731Z,7.15
2023-05-25T01:06:47.936Z,6.78
2023-05-25T01:11:51.610Z,7.15
2023-05-25T01:16:55.222Z,7.22
2023-05-25T01:22:20.098Z,6.57
2023-05-25T01:27:30.709Z,7.07
2023-05-25T01:32:35.323Z,6.80
2023-05-25T01:37:39.707Z,6.95
2023-05-25T01:42:42.352Z,7.25
2023-05-25T01:48:16.030Z,7.53
2023-05-25T01:53:36.829Z,7.50
2023-05-25T01:58:50.783Z,6.93
2023-05-25T02:03:53.294Z,7.20
2023-05-25T02:08:55.120Z,7.30
2023-05-25T02:13:56.936Z,6.97
2023-05-25T02:18:58.718Z,6.93
2023-05-25T02:24:00.723Z,7.75
2023-05-25T02:29:03.396Z,7.80
2023-05-25T02:34:05.174Z,7.47
2023-05-25T02:39:06.980Z,7.68
2023-05-25T02:44:08.861Z,7.53
2023-05-25T02:49:10.817Z,7.88
2023-05-25T02:54:12.907Z,7.97
2023-05-25T02:59:14.797Z,7.72
2023-05-25T03:04:16.657Z,8.13
2023-05-25T03:09:18.543Z,7.37
2023-05-25T03:14:22.793Z,8.02
2023-05-25T03:19:32.352Z,7.97
2023-05-25T03:24:34.597Z,7.57
2023-05-25T03:29:38.400Z,7.53
2023-05-25T03:34:40.854Z,7.05
2023-05-25T03:39:44.844Z,7.70
2023-05-25T03:44:46.723Z,7.87
2023-05-25T03:49:48.544Z,7.80
2023-05-25T03:54:50.629Z,7.50
2023-05-25T03:59:52.361Z,7.88
2023-05-25T04:04:54.285Z,7.55
2023-05-25T04:09:59.517Z,8.10
2023-05-25T04:15:03.567Z,8.05
2023-05-25T04:20:09.031Z,7.80
2023-05-25T04:25:11.618Z,7.85
2023-05-25T04:30:13.618Z,7.57
2023-05-25T04:35:26.832Z,7.43
2023-05-25T04:40:28.930Z,8.20
2023-05-25T04:45:33.200Z,8.13
2023-05-25T04:50:37.575Z,7.57
2023-05-25T05:00:42.261Z,7.72
2023-05-25T05:10:52.202Z,7.60
2023-05-25T05:15:54.128Z,7.18
2023-05-25T05:20:56.684Z,7.77
2023-05-25T05:25:59.495Z,8.20
2023-05-25T05:31:01.654Z,7.00
2023-05-25T05:36:04.795Z,7.30
2023-05-25T05:41:13.488Z,7.72
2023-05-25T05:46:16.805Z,7.32
2023-05-25T05:51:18.983Z,7.20
2023-05-25T05:56:21.775Z,7.55
2023-05-25T06:01:24.052Z,8.00
2023-05-25T06:11:31.662Z,7.05
2023-05-25T06:16:33.825Z,6.93
2023-05-25T06:21:36.970Z,7.27
2023-05-25T06:26:38.655Z,7.78
2023-05-25T06:31:40.638Z,7.70
2023-05-25T06:36:42.524Z,7.37
2023-05-25T06:41:45.272Z,7.15
2023-05-25T06:46:51.052Z,7.43
2023-05-25T06:51:52.779Z,7.03
2023-05-25T06:56:54.743Z,6.83
2023-05-25T07:01:56.581Z,7.93
2023-05-25T07:06:58.645Z,7.30
2023-05-25T07:12:01.143Z,7.37
2023-05-25T07:17:03.026Z,8.20
2023-05-25T07:22:05.358Z,8.15
2023-05-25T07:27:08.207Z,8.18
2023-05-25T07:37:11.763Z,7.97
2023-05-25T07:42:14.019Z,8.70
2023-05-25T07:47:16.137Z,7.90
2023-05-25T07:52:18.992Z,8.50
2023-05-25T07:57:20.875Z,7.43
2023-05-25T08:02:22.982Z,8.05
2023-05-25T08:07:25.572Z,8.23
2023-05-25T08:12:43.031Z,7.93
2023-05-25T08:17:50.977Z,8.27
2023-05-25T08:22:53.718Z,8.13
2023-05-25T08:27:56.022Z,8.00
2023-05-25T08:32:57.775Z,7.68
2023-05-25T08:37:59.513Z,8.73
2023-05-25T08:43:01.579Z,8.17
2023-05-25T08:48:09.477Z,7.78
2023-05-25T08:53:13.538Z,7.20
2023-05-25T08:58:22.151Z,7.68
2023-05-25T09:03:24.700Z,7.68
2023-05-25T09:08:27.274Z,7.28
2023-05-25T09:18:31.320Z,6.72
2023-05-25T09:23:35.500Z,6.43
2023-05-25T09:28:45.674Z,6.85
2023-05-25T09:33:47.605Z,6.07
2023-05-25T09:38:49.704Z,6.70
2023-05-25T09:44:02.040Z,6.85
2023-05-25T09:49:09.324Z,6.35
2023-05-25T09:54:11.500Z,6.13
2023-05-25T09:59:13.230Z,5.95
2023-05-25T10:04:16.423Z,6.07
2023-05-25T10:09:19.573Z,5.82
2023-05-25T10:14:28.049Z,5.85
2023-05-25T10:19:57.296Z,6.07
2023-05-25T10:25:14.245Z,6.28
2023-05-25T10:30:17.224Z,5.95
2023-05-25T10:40:22.867Z,5.88
2023-05-25T10:45:24.981Z,5.72
2023-05-25T10:50:28.754Z,5.50
2023-05-25T10:55:43.415Z,5.38
2023-05-25T11:01:12.218Z,5.57
2023-05-25T11:06:15.906Z,5.15
2023-05-25T11:11:18.959Z,5.07
2023-05-25T11:16:37.708Z,4.43
2023-05-25T11:21:44.050Z,5.10
2023-05-25T11:26:57.880Z,5.10
2023-05-25T11:32:00.680Z,4.50
2023-05-25T11:37:02.544Z,4.97
2023-05-25T11:42:07.199Z,4.75
2023-05-25T11:47:13.394Z,4.80
2023-05-25T11:52:17.291Z,4.53
2023-05-25T11:57:22.549Z,5.25
2023-05-25T12:02:24.508Z,4.95
2023-05-25T12:07:31.298Z,5.10
2023-05-25T12:12:42.304Z,4.40
2023-05-25T12:17:45.449Z,4.65
2023-05-25T12:22:47.865Z,5.20
2023-05-25T12:27:49.741Z,4.88
2023-05-25T12:33:00.949Z,4.50
2023-05-25T12:38:12.056Z,4.70
2023-05-25T12:43:15.297Z,5.10
2023-05-25T12:48:26.248Z,4.38
2023-05-25T12:53:29.026Z,5.00
2023-05-25T12:58:30.936Z,4.60
2023-05-25T13:03:33.100Z,4.82
2023-05-25T13:08:35.015Z,4.00
2023-05-25T13:13:37.373Z,4.30
2023-05-25T13:18:39.222Z,4.03
2023-05-25T13:23:41.005Z,4.57
2023-05-25T13:28:42.776Z,4.70
2023-05-25T13:33:44.448Z,4.33
2023-05-25T13:38:46.624Z,5.30
2023-05-25T13:43:48.834Z,4.70
2023-05-25T13:48:50.604Z,4.93
2023-05-25T13:53:53.555Z,5.13
2023-05-25T13:58:56.528Z,5.03
2023-05-25T14:03:59.871Z,4.97
2023-05-25T14:09:01.761Z,4.60
2023-05-25T14:14:09.594Z,4.90
2023-05-25T14:19:18.416Z,4.50
2023-05-25T14:24:20.353Z,5.10
2023-05-25T14:29:22.043Z,4.20
2023-05-25T14:34:24.094Z,4.93
2023-05-25T14:39:26.577Z,4.68
2023-05-25T14:49:30.351Z,4.82
2023-05-25T14:54:32.018Z,4.73
2023-05-25T14:59:33.860Z,4.43
2023-05-25T15:04:35.618Z,4.30
2023-05-25T15:09:37.437Z,4.82
2023-05-25T15:14:40.815Z,4.27
2023-05-25T15:19:42.564Z,4.40
2023-05-25T15:24:44.540Z,4.65
2023-05-25T15:29:47.056Z,4.37
2023-05-25T15:34:49.118Z,4.53
2023-05-25T15:39:51.164Z,4.67
2023-05-25T15:44:53.414Z,5.18
2023-05-25T15:49:55.227Z,4.68
2023-05-25T15:54:57.189Z,4.47
2023-05-25T15:59:59.035Z,4.80
2023-05-25T16:05:00.836Z,4.73
2023-05-25T16:10:03.110Z,4.40
2023-05-25T16:15:05.352Z,4.45
2023-05-25T16:20:08.024Z,5.05
2023-05-25T16:25:10.701Z,4.22
2023-05-25T16:30:13.526Z,4.57
2023-05-25T16:35:16.070Z,4.47
2023-05-25T16:40:17.822Z,5.03
2023-05-25T16:45:21.012Z,4.43
2023-05-25T16:50:22.831Z,4.60
2023-05-25T16:55:24.973Z,5.05
2023-05-25T17:00:26.739Z,4.97
2023-05-25T17:05:28.452Z,4.83
2023-05-25T17:10:30.149Z,5.10
2023-05-25T17:15:31.979Z,4.60
2023-05-25T17:20:33.857Z,4.45
2023-05-25T17:25:35.755Z,4.47
2023-05-25T17:30:37.641Z,4.90
2023-05-25T17:35:39.323Z,4.57
2023-05-25T17:40:41.159Z,4.73
2023-05-25T17:45:43.087Z,4.73
2023-05-25T17:55:47.167Z,4.88
2023-05-25T18:00:49.152Z,4.83
2023-05-25T18:10:53.266Z,4.85
2023-05-25T18:15:55.430Z,4.90
2023-05-25T18:20:57.262Z,4.80
2023-05-25T18:25:59.155Z,4.67
2023-05-25T18:31:00.978Z,4.67
2023-05-25T18:36:02.820Z,4.80
2023-05-25T18:41:04.602Z,5.27
2023-05-25T18:46:06.945Z,5.63
2023-05-25T18:51:08.848Z,5.20
2023-05-25T18:56:11.027Z,5.30
2023-05-25T19:01:12.970Z,5.72
2023-05-25T19:06:14.900Z,5.57
2023-05-25T19:11:20.038Z,5.57
2023-05-25T19:16:25.733Z,5.70
2023-05-25T19:21:37.298Z,6.03
2023-05-25T19:26:49.967Z,5.90
2023-05-25T19:31:53.511Z,5.97
2023-05-25T19:37:10.173Z,6.47
2023-05-25T19:42:14.387Z,6.30
2023-05-25T19:47:16.386Z,6.05
2023-05-25T19:52:18.411Z,6.13
2023-05-25T19:57:22.019Z,6.30
2023-05-25T20:02:23.841Z,6.60
2023-05-25T20:07:25.655Z,6.53
2023-05-25T20:12:27.387Z,6.47
2023-05-25T20:17:29.861Z,6.05
2023-05-25T20:22:32.989Z,6.50
2023-05-25T20:27:35.087Z,6.20
2023-05-25T20:32:37.097Z,6.68
2023-05-25T20:37:39.675Z,5.88
2023-05-25T20:42:41.607Z,6.35
2023-05-25T20:47:43.928Z,6.03
2023-05-25T20:52:45.695Z,5.47
2023-05-25T20:57:47.466Z,6.20
2023-05-25T21:02:49.464Z,6.05
2023-05-25T21:07:51.826Z,6.03
2023-05-25T21:12:53.535Z,6.40
2023-05-25T21:17:55.839Z,5.95
2023-05-25T21:22:57.734Z,6.97
2023-05-25T21:27:59.467Z,5.88
2023-05-25T21:33:01.634Z,5.77
2023-05-25T21:38:03.898Z,5.35
2023-05-25T21:43:06.543Z,5.90
2023-05-25T21:48:08.617Z,5.75
2023-05-25T21:53:10.961Z,5.90
2023-05-25T21:58:14.252Z,5.83
2023-05-25T22:03:16.793Z,5.38
2023-05-25T22:08:18.571Z,5.60
2023-05-25T22:13:21.214Z,5.32
2023-05-25T22:18:22.983Z,6.00
2023-05-25T22:23:26.473Z,4.93
2023-05-25T22:28:28.613Z,5.97
2023-05-25T22:33:30.620Z,5.53
2023-05-25T22:38:32.843Z,6.10
2023-05-25T22:43:34.624Z,5.50
2023-05-25T22:48:36.389Z,5.85
2023-05-25T22:53:38.156Z,5.57
2023-05-25T22:58:39.905Z,5.72
2023-05-25T23:03:41.922Z,5.55
2023-05-25T23:08:44.095Z,6.30
2023-05-25T23:13:45.821Z,6.47
2023-05-25T23:18:47.989Z,5.97
2023-05-25T23:23:49.724Z,6.30
2023-05-25T23:28:51.591Z,5.65
2023-05-25T23:33:53.392Z,6.13
2023-05-25T23:38:55.182Z,5.53
2023-05-25T23:43:57.668Z,6.07
2023-05-25T23:48:59.601Z,5.93
2023-05-25T23:54:01.361Z,6.00
2023-05-25T23:59:04.110Z,6.40
